RPA5514 KCMH-KJFK
Flight info
| Callsign | RPA5514 |
|---|---|
| Flight time | 1h 18m |
| Altitude | 27000 |
| Route | RDBUV NOWZU DJB JHW Q476 WLKES PUCKY1 |
| Aircraft | B462/M-SBDFGRY/L |
Departure
| Time | 2026-05-09 01:30 |
|---|---|
| Airport | John Glenn Columbus International Airport (KCMH) |
Arrival
| Time | 2026-05-09 02:48 |
|---|---|
| Airport | John F. Kennedy International Airport (KJFK) |
| Time | Latitude | Longitude | Altitude | Speed | Heading |
|---|---|---|---|---|---|
| 2026-05-09 01:02 | 39.99833 | -82.88213 | 820 ft | 0 kts | 181° |
| 2026-05-09 01:19 | 39.99845 | -82.88213 | 820 ft | 2 kts | 181° |
| 2026-05-09 01:20 | 39.99861 | -82.88212 | 819 ft | 2 kts | 181° |
| 2026-05-09 01:20 | 39.99878 | -82.88212 | 819 ft | 2 kts | 180° |
| 2026-05-09 01:20 | 39.99894 | -82.88213 | 819 ft | 2 kts | 172° |
| 2026-05-09 01:20 | 39.99907 | -82.88222 | 818 ft | 1 kts | 104° |
| 2026-05-09 01:21 | 39.99907 | -82.88224 | 818 ft | 0 kts | 98° |
| 2026-05-09 01:25 | 39.99908 | -82.88206 | 819 ft | 5 kts | 73° |
| 2026-05-09 01:25 | 39.99934 | -82.88177 | 819 ft | 3 kts | 28° |
| 2026-05-09 01:25 | 39.99965 | -82.88150 | 821 ft | 7 kts | 51° |
| 2026-05-09 01:25 | 39.99971 | -82.88081 | 821 ft | 12 kts | 94° |
| 2026-05-09 01:26 | 39.99973 | -82.87975 | 820 ft | 11 kts | 57° |
| 2026-05-09 01:26 | 40.00039 | -82.87944 | 818 ft | 10 kts | 6° |
| 2026-05-09 01:26 | 40.00073 | -82.87941 | 816 ft | 0 kts | 4° |
| 2026-05-09 01:28 | 40.00088 | -82.87939 | 816 ft | 8 kts | 4° |
| 2026-05-09 01:28 | 40.00144 | -82.87935 | 818 ft | 6 kts | 0° |
| 2026-05-09 01:29 | 40.00163 | -82.87969 | 819 ft | 5 kts | 272° |
| 2026-05-09 01:29 | 40.00164 | -82.87983 | 819 ft | 3 kts | 272° |
| 2026-05-09 01:29 | 40.00172 | -82.88151 | 820 ft | 47 kts | 274° |
| 2026-05-09 01:29 | 40.00212 | -82.88863 | 825 ft | 108 kts | 275° |
| 2026-05-09 01:30 | 40.00256 | -82.89610 | 834 ft | 138 kts | 274° |
| 2026-05-09 01:30 | 40.00355 | -82.90807 | 1337 ft | 135 kts | 276° |
| 2026-05-09 01:30 | 40.00492 | -82.92051 | 1889 ft | 136 kts | 279° |
| 2026-05-09 01:30 | 40.00675 | -82.93286 | 2491 ft | 145 kts | 279° |
| 2026-05-09 01:31 | 40.00899 | -82.94632 | 3006 ft | 158 kts | 286° |
| 2026-05-09 01:31 | 40.01574 | -82.95823 | 3545 ft | 177 kts | 319° |
| 2026-05-09 01:31 | 40.02820 | -82.96381 | 3866 ft | 209 kts | 352° |
| 2026-05-09 01:31 | 40.04404 | -82.96017 | 3978 ft | 257 kts | 19° |
| 2026-05-09 01:32 | 40.06067 | -82.94735 | 4165 ft | 297 kts | 33° |
| 2026-05-09 01:32 | 40.07754 | -82.93072 | 4810 ft | 307 kts | 36° |
| 2026-05-09 01:32 | 40.09441 | -82.91355 | 5731 ft | 309 kts | 35° |
| 2026-05-09 01:32 | 40.11128 | -82.89645 | 6815 ft | 305 kts | 36° |
| 2026-05-09 01:33 | 40.12845 | -82.87945 | 7739 ft | 311 kts | 32° |
| 2026-05-09 01:33 | 40.14674 | -82.86431 | 8693 ft | 310 kts | 20° |
| 2026-05-09 01:33 | 40.16673 | -82.85375 | 9640 ft | 311 kts | 14° |
| 2026-05-09 01:33 | 40.18707 | -82.84382 | 10518 ft | 312 kts | 14° |
| 2026-05-09 01:34 | 40.20767 | -82.83359 | 11374 ft | 313 kts | 15° |
| 2026-05-09 01:34 | 40.22774 | -82.82319 | 12143 ft | 316 kts | 15° |
| 2026-05-09 01:34 | 40.24844 | -82.81202 | 12647 ft | 328 kts | 17° |
| 2026-05-09 01:34 | 40.27005 | -82.80000 | 12923 ft | 341 kts | 18° |
| 2026-05-09 01:35 | 40.29160 | -82.78760 | 13750 ft | 336 kts | 18° |
| 2026-05-09 01:35 | 40.31271 | -82.77527 | 14594 ft | 327 kts | 18° |
| 2026-05-09 01:35 | 40.33324 | -82.76307 | 15333 ft | 325 kts | 18° |
| 2026-05-09 01:35 | 40.35388 | -82.75069 | 15867 ft | 328 kts | 18° |
| 2026-05-09 01:36 | 40.37481 | -82.73833 | 16387 ft | 331 kts | 17° |
| 2026-05-09 01:36 | 40.39601 | -82.72590 | 16890 ft | 334 kts | 17° |
| 2026-05-09 01:36 | 40.41729 | -82.71381 | 17367 ft | 336 kts | 15° |
| 2026-05-09 01:36 | 40.43891 | -82.70198 | 17831 ft | 338 kts | 15° |
| 2026-05-09 01:37 | 40.46081 | -82.69039 | 18269 ft | 340 kts | 14° |
| 2026-05-09 01:37 | 40.48288 | -82.67880 | 18631 ft | 343 kts | 14° |
| 2026-05-09 01:37 | 40.50510 | -82.66708 | 18998 ft | 345 kts | 14° |
| 2026-05-09 01:37 | 40.52742 | -82.65521 | 19344 ft | 348 kts | 14° |
| 2026-05-09 01:38 | 40.54990 | -82.64311 | 19685 ft | 350 kts | 14° |
| 2026-05-09 01:38 | 40.57246 | -82.63052 | 20017 ft | 353 kts | 15° |
| 2026-05-09 01:38 | 40.59496 | -82.61727 | 20334 ft | 356 kts | 16° |
| 2026-05-09 01:38 | 40.61760 | -82.60388 | 20657 ft | 358 kts | 15° |
| 2026-05-09 01:39 | 40.64040 | -82.59046 | 20967 ft | 360 kts | 15° |
| 2026-05-09 01:39 | 40.66330 | -82.57690 | 21285 ft | 362 kts | 15° |
| 2026-05-09 01:39 | 40.68638 | -82.56314 | 21604 ft | 366 kts | 15° |
| 2026-05-09 01:39 | 40.70968 | -82.54939 | 21904 ft | 368 kts | 14° |
| 2026-05-09 01:40 | 40.73315 | -82.53564 | 22213 ft | 370 kts | 14° |
| 2026-05-09 01:40 | 40.75673 | -82.52180 | 22512 ft | 372 kts | 14° |
| 2026-05-09 01:40 | 40.78041 | -82.50785 | 22799 ft | 375 kts | 14° |
| 2026-05-09 01:40 | 40.80431 | -82.49369 | 23107 ft | 377 kts | 14° |
| 2026-05-09 01:41 | 40.82831 | -82.47943 | 23406 ft | 379 kts | 14° |
| 2026-05-09 01:41 | 40.85237 | -82.46504 | 23650 ft | 381 kts | 14° |
| 2026-05-09 01:41 | 40.87654 | -82.45056 | 23902 ft | 382 kts | 14° |
| 2026-05-09 01:41 | 40.90087 | -82.43609 | 24139 ft | 384 kts | 14° |
| 2026-05-09 01:42 | 40.92534 | -82.42157 | 24372 ft | 386 kts | 14° |
| 2026-05-09 01:42 | 40.94987 | -82.40700 | 24616 ft | 387 kts | 14° |
| 2026-05-09 01:42 | 40.97451 | -82.39261 | 24887 ft | 387 kts | 14° |
| 2026-05-09 01:42 | 40.99916 | -82.37818 | 25159 ft | 387 kts | 13° |
| 2026-05-09 01:43 | 41.02379 | -82.36352 | 25381 ft | 389 kts | 14° |
| 2026-05-09 01:43 | 41.04845 | -82.34872 | 25609 ft | 390 kts | 14° |
| 2026-05-09 01:43 | 41.07323 | -82.33397 | 25836 ft | 391 kts | 14° |
| 2026-05-09 01:43 | 41.09811 | -82.31914 | 26092 ft | 392 kts | 13° |
| 2026-05-09 01:44 | 41.12304 | -82.30414 | 26291 ft | 395 kts | 13° |
| 2026-05-09 01:44 | 41.14804 | -82.28892 | 26498 ft | 396 kts | 13° |
| 2026-05-09 01:44 | 41.17315 | -82.27380 | 26701 ft | 396 kts | 13° |
| 2026-05-09 01:44 | 41.19844 | -82.25881 | 26815 ft | 400 kts | 13° |
| 2026-05-09 01:45 | 41.22406 | -82.24361 | 26867 ft | 406 kts | 13° |
| 2026-05-09 01:45 | 41.24998 | -82.22802 | 26888 ft | 412 kts | 13° |
| 2026-05-09 01:45 | 41.27636 | -82.21216 | 26901 ft | 419 kts | 13° |
| 2026-05-09 01:45 | 41.30313 | -82.19613 | 26928 ft | 425 kts | 14° |
| 2026-05-09 01:46 | 41.33008 | -82.17884 | 26914 ft | 440 kts | 22° |
| 2026-05-09 01:46 | 41.35415 | -82.15185 | 26925 ft | 466 kts | 42° |
| 2026-05-09 01:46 | 41.37263 | -82.11542 | 26930 ft | 484 kts | 57° |
| 2026-05-09 01:46 | 41.38703 | -82.07441 | 26925 ft | 493 kts | 63° |
| 2026-05-09 01:47 | 41.39955 | -82.03154 | 26921 ft | 500 kts | 66° |
| 2026-05-09 01:47 | 41.41134 | -81.98770 | 26906 ft | 505 kts | 67° |
| 2026-05-09 01:47 | 41.42313 | -81.94344 | 26901 ft | 507 kts | 66° |
| 2026-05-09 01:47 | 41.43514 | -81.89914 | 26896 ft | 509 kts | 66° |
| 2026-05-09 01:48 | 41.44744 | -81.85489 | 26891 ft | 510 kts | 66° |
| 2026-05-09 01:48 | 41.45991 | -81.81052 | 26886 ft | 511 kts | 65° |
| 2026-05-09 01:48 | 41.47272 | -81.76639 | 26886 ft | 512 kts | 65° |
| 2026-05-09 01:48 | 41.48555 | -81.72205 | 26911 ft | 513 kts | 65° |
| 2026-05-09 01:49 | 41.49828 | -81.67763 | 26894 ft | 513 kts | 65° |
| 2026-05-09 01:49 | 41.51104 | -81.63314 | 26887 ft | 513 kts | 65° |
| 2026-05-09 01:49 | 41.52378 | -81.58858 | 26887 ft | 513 kts | 65° |
| 2026-05-09 01:49 | 41.53641 | -81.54405 | 26898 ft | 513 kts | 66° |
| 2026-05-09 01:50 | 41.54875 | -81.49942 | 26898 ft | 513 kts | 66° |
| 2026-05-09 01:50 | 41.56119 | -81.45475 | 26897 ft | 513 kts | 65° |
| 2026-05-09 01:50 | 41.57386 | -81.41023 | 26892 ft | 512 kts | 65° |
| 2026-05-09 01:50 | 41.58649 | -81.36584 | 26904 ft | 512 kts | 66° |
| 2026-05-09 01:51 | 41.59890 | -81.32126 | 26903 ft | 512 kts | 66° |
| 2026-05-09 01:51 | 41.61123 | -81.27669 | 26907 ft | 511 kts | 66° |
| 2026-05-09 01:51 | 41.62355 | -81.23219 | 26905 ft | 511 kts | 65° |
| 2026-05-09 01:51 | 41.63612 | -81.18777 | 26899 ft | 511 kts | 65° |
| 2026-05-09 01:52 | 41.64862 | -81.14336 | 26926 ft | 511 kts | 65° |
| 2026-05-09 01:52 | 41.66099 | -81.09878 | 26909 ft | 511 kts | 65° |
| 2026-05-09 01:52 | 41.67336 | -81.05483 | 26909 ft | 511 kts | 65° |
| 2026-05-09 01:52 | 41.68584 | -81.01034 | 26902 ft | 512 kts | 65° |
| 2026-05-09 01:53 | 41.69809 | -80.96560 | 26901 ft | 512 kts | 66° |
| 2026-05-09 01:53 | 41.71047 | -80.92019 | 26900 ft | 512 kts | 66° |
| 2026-05-09 01:53 | 41.72250 | -80.87599 | 26902 ft | 512 kts | 65° |
| 2026-05-09 01:53 | 41.73487 | -80.83141 | 26902 ft | 512 kts | 65° |
| 2026-05-09 01:54 | 41.74736 | -80.78676 | 26905 ft | 512 kts | 65° |
| 2026-05-09 01:54 | 41.75973 | -80.74202 | 26905 ft | 512 kts | 65° |
| 2026-05-09 01:54 | 41.77190 | -80.69720 | 26904 ft | 512 kts | 66° |
| 2026-05-09 01:54 | 41.78406 | -80.65226 | 26904 ft | 512 kts | 66° |
| 2026-05-09 01:55 | 41.79617 | -80.60744 | 26900 ft | 512 kts | 66° |
| 2026-05-09 01:55 | 41.80834 | -80.56247 | 26902 ft | 513 kts | 66° |
| 2026-05-09 01:55 | 41.82050 | -80.51758 | 26918 ft | 513 kts | 65° |
| 2026-05-09 01:55 | 41.83280 | -80.47269 | 26906 ft | 513 kts | 65° |
| 2026-05-09 01:56 | 41.84518 | -80.42778 | 26906 ft | 513 kts | 65° |
| 2026-05-09 01:56 | 41.85756 | -80.38285 | 26907 ft | 514 kts | 65° |
| 2026-05-09 01:56 | 41.86966 | -80.33780 | 26911 ft | 514 kts | 65° |
| 2026-05-09 01:56 | 41.88171 | -80.29262 | 26914 ft | 514 kts | 65° |
| 2026-05-09 01:57 | 41.89370 | -80.24749 | 26917 ft | 514 kts | 65° |
| 2026-05-09 01:57 | 41.90574 | -80.20220 | 26916 ft | 514 kts | 65° |
| 2026-05-09 01:57 | 41.91776 | -80.15697 | 26918 ft | 514 kts | 65° |
| 2026-05-09 01:57 | 41.92989 | -80.11191 | 26916 ft | 514 kts | 65° |
| 2026-05-09 01:58 | 41.94226 | -80.06676 | 26916 ft | 514 kts | 65° |
| 2026-05-09 01:58 | 41.95434 | -80.02159 | 26913 ft | 515 kts | 65° |
| 2026-05-09 01:58 | 41.96642 | -79.97623 | 26917 ft | 515 kts | 65° |
| 2026-05-09 01:58 | 41.97847 | -79.93089 | 26948 ft | 516 kts | 65° |
| 2026-05-09 01:59 | 41.99050 | -79.88545 | 26925 ft | 516 kts | 65° |
| 2026-05-09 01:59 | 42.00254 | -79.84001 | 26931 ft | 516 kts | 65° |
| 2026-05-09 01:59 | 42.01456 | -79.79462 | 26920 ft | 516 kts | 65° |
| 2026-05-09 01:59 | 42.02662 | -79.74912 | 26923 ft | 516 kts | 65° |
| 2026-05-09 02:00 | 42.03861 | -79.70367 | 26924 ft | 516 kts | 65° |
| 2026-05-09 02:00 | 42.05064 | -79.65807 | 26934 ft | 516 kts | 65° |
| 2026-05-09 02:00 | 42.06263 | -79.61261 | 26921 ft | 516 kts | 65° |
| 2026-05-09 02:00 | 42.07463 | -79.56694 | 26939 ft | 517 kts | 65° |
| 2026-05-09 02:01 | 42.08635 | -79.52120 | 26942 ft | 517 kts | 66° |
| 2026-05-09 02:01 | 42.09803 | -79.47547 | 26924 ft | 517 kts | 65° |
| 2026-05-09 02:01 | 42.10997 | -79.42986 | 26922 ft | 517 kts | 65° |
| 2026-05-09 02:01 | 42.12200 | -79.38423 | 26954 ft | 517 kts | 65° |
| 2026-05-09 02:02 | 42.13390 | -79.33847 | 26941 ft | 517 kts | 66° |
| 2026-05-09 02:02 | 42.14570 | -79.29260 | 26938 ft | 517 kts | 66° |
| 2026-05-09 02:02 | 42.15747 | -79.24678 | 26937 ft | 517 kts | 66° |
| 2026-05-09 02:02 | 42.17013 | -79.20159 | 26933 ft | 515 kts | 63° |
| 2026-05-09 02:03 | 42.18090 | -79.15540 | 26932 ft | 522 kts | 77° |
| 2026-05-09 02:03 | 42.18280 | -79.10644 | 26932 ft | 526 kts | 95° |
| 2026-05-09 02:03 | 42.17594 | -79.05822 | 26941 ft | 523 kts | 108° |
| 2026-05-09 02:03 | 42.16450 | -79.01177 | 26944 ft | 522 kts | 112° |
| 2026-05-09 02:04 | 42.15192 | -78.96591 | 26939 ft | 522 kts | 113° |
| 2026-05-09 02:04 | 42.13920 | -78.92012 | 26936 ft | 522 kts | 113° |
| 2026-05-09 02:04 | 42.12673 | -78.87408 | 26929 ft | 523 kts | 112° |
| 2026-05-09 02:04 | 42.11463 | -78.82782 | 26922 ft | 524 kts | 112° |
| 2026-05-09 02:05 | 42.10283 | -78.78139 | 26922 ft | 524 kts | 111° |
| 2026-05-09 02:05 | 42.09129 | -78.73484 | 26912 ft | 524 kts | 111° |
| 2026-05-09 02:05 | 42.07981 | -78.68831 | 26926 ft | 524 kts | 111° |
| 2026-05-09 02:05 | 42.06808 | -78.64190 | 26917 ft | 524 kts | 111° |
| 2026-05-09 02:06 | 42.05625 | -78.59546 | 26923 ft | 524 kts | 111° |
| 2026-05-09 02:06 | 42.04440 | -78.54917 | 26915 ft | 524 kts | 111° |
| 2026-05-09 02:06 | 42.03254 | -78.50276 | 26902 ft | 524 kts | 111° |
| 2026-05-09 02:07 | 42.00878 | -78.41004 | 26922 ft | 524 kts | 111° |
| 2026-05-09 02:07 | 41.99691 | -78.36369 | 26930 ft | 524 kts | 111° |
| 2026-05-09 02:07 | 41.98506 | -78.31741 | 26953 ft | 525 kts | 111° |
| 2026-05-09 02:07 | 41.97317 | -78.27092 | 26956 ft | 526 kts | 111° |
| 2026-05-09 02:08 | 41.96128 | -78.22441 | 26968 ft | 527 kts | 111° |
| 2026-05-09 02:08 | 41.94940 | -78.17790 | 26963 ft | 527 kts | 111° |
| 2026-05-09 02:08 | 41.93748 | -78.13121 | 26951 ft | 527 kts | 111° |
| 2026-05-09 02:08 | 41.92541 | -78.08475 | 26963 ft | 527 kts | 112° |
| 2026-05-09 02:09 | 41.91312 | -78.03830 | 26952 ft | 528 kts | 112° |
| 2026-05-09 02:09 | 41.90082 | -77.99194 | 26951 ft | 528 kts | 112° |
| 2026-05-09 02:09 | 41.88875 | -77.94539 | 26957 ft | 528 kts | 111° |
| 2026-05-09 02:09 | 41.87676 | -77.89880 | 26963 ft | 528 kts | 111° |
| 2026-05-09 02:10 | 41.86477 | -77.85223 | 26958 ft | 529 kts | 111° |
| 2026-05-09 02:10 | 41.85246 | -77.80574 | 26951 ft | 529 kts | 112° |
| 2026-05-09 02:10 | 41.84008 | -77.75926 | 26951 ft | 529 kts | 112° |
| 2026-05-09 02:10 | 41.82767 | -77.71285 | 26940 ft | 529 kts | 112° |
| 2026-05-09 02:11 | 41.81946 | -77.68204 | 26943 ft | 529 kts | 112° |
| 2026-05-09 02:11 | 41.80732 | -77.63547 | 26938 ft | 529 kts | 111° |
| 2026-05-09 02:11 | 41.79515 | -77.58891 | 26957 ft | 529 kts | 112° |
| 2026-05-09 02:11 | 41.78280 | -77.54251 | 26961 ft | 530 kts | 112° |
| 2026-05-09 02:12 | 41.77038 | -77.49602 | 26947 ft | 530 kts | 112° |
| 2026-05-09 02:12 | 41.75791 | -77.44955 | 26972 ft | 531 kts | 112° |
| 2026-05-09 02:12 | 41.74543 | -77.40292 | 26974 ft | 531 kts | 112° |
| 2026-05-09 02:12 | 41.73299 | -77.35638 | 26960 ft | 531 kts | 112° |
| 2026-05-09 02:13 | 41.72056 | -77.30988 | 26946 ft | 530 kts | 112° |
| 2026-05-09 02:13 | 41.70820 | -77.26355 | 26940 ft | 528 kts | 112° |
| 2026-05-09 02:13 | 41.69585 | -77.21722 | 26929 ft | 527 kts | 111° |
| 2026-05-09 02:13 | 41.68351 | -77.17113 | 26902 ft | 526 kts | 112° |
| 2026-05-09 02:14 | 41.67124 | -77.12509 | 26923 ft | 525 kts | 112° |
| 2026-05-09 02:14 | 41.65897 | -77.07909 | 26925 ft | 524 kts | 112° |
| 2026-05-09 02:14 | 41.64647 | -77.03340 | 26928 ft | 523 kts | 112° |
| 2026-05-09 02:14 | 41.63389 | -76.98778 | 26929 ft | 523 kts | 112° |
| 2026-05-09 02:15 | 41.62131 | -76.94221 | 26922 ft | 522 kts | 112° |
| 2026-05-09 02:15 | 41.60886 | -76.89655 | 26928 ft | 523 kts | 112° |
| 2026-05-09 02:15 | 41.59662 | -76.85067 | 26925 ft | 525 kts | 111° |
| 2026-05-09 02:15 | 41.58438 | -76.80489 | 26938 ft | 526 kts | 112° |
| 2026-05-09 02:16 | 41.57177 | -76.75903 | 26938 ft | 527 kts | 112° |
| 2026-05-09 02:16 | 41.55905 | -76.71313 | 26940 ft | 528 kts | 112° |
| 2026-05-09 02:16 | 41.54628 | -76.66718 | 26937 ft | 529 kts | 112° |
| 2026-05-09 02:16 | 41.53350 | -76.62114 | 26937 ft | 529 kts | 112° |
| 2026-05-09 02:17 | 41.52071 | -76.57505 | 26932 ft | 530 kts | 112° |
| 2026-05-09 02:17 | 41.50789 | -76.52890 | 26930 ft | 530 kts | 112° |
| 2026-05-09 02:17 | 41.49507 | -76.48261 | 26928 ft | 531 kts | 112° |
| 2026-05-09 02:17 | 41.48245 | -76.43647 | 26931 ft | 531 kts | 111° |
| 2026-05-09 02:18 | 41.46990 | -76.39022 | 26931 ft | 531 kts | 112° |
| 2026-05-09 02:18 | 41.45708 | -76.34399 | 26937 ft | 531 kts | 112° |
| 2026-05-09 02:18 | 41.44426 | -76.29781 | 26939 ft | 532 kts | 112° |
| 2026-05-09 02:18 | 41.43139 | -76.25165 | 26938 ft | 532 kts | 112° |
| 2026-05-09 02:19 | 41.41855 | -76.20545 | 26937 ft | 532 kts | 112° |
| 2026-05-09 02:19 | 41.40570 | -76.15927 | 26942 ft | 532 kts | 112° |
| 2026-05-09 02:19 | 41.39287 | -76.11308 | 26940 ft | 531 kts | 112° |
| 2026-05-09 02:19 | 41.37987 | -76.06708 | 26952 ft | 531 kts | 113° |
| 2026-05-09 02:20 | 41.36661 | -76.02109 | 26950 ft | 531 kts | 113° |
| 2026-05-09 02:20 | 41.35361 | -75.97514 | 26946 ft | 531 kts | 112° |
| 2026-05-09 02:20 | 41.34068 | -75.92897 | 26963 ft | 531 kts | 112° |
| 2026-05-09 02:20 | 41.32782 | -75.88292 | 26965 ft | 531 kts | 112° |
| 2026-05-09 02:21 | 41.31473 | -75.83710 | 26928 ft | 529 kts | 113° |
| 2026-05-09 02:21 | 41.30156 | -75.79149 | 26951 ft | 528 kts | 113° |
| 2026-05-09 02:21 | 41.28841 | -75.74592 | 26966 ft | 528 kts | 112° |
| 2026-05-09 02:21 | 41.27528 | -75.70037 | 26973 ft | 527 kts | 113° |
| 2026-05-09 02:22 | 41.26148 | -75.65527 | 26970 ft | 526 kts | 115° |
| 2026-05-09 02:22 | 41.24702 | -75.61085 | 26955 ft | 516 kts | 116° |
| 2026-05-09 02:22 | 41.23271 | -75.56812 | 26664 ft | 500 kts | 117° |
| 2026-05-09 02:22 | 41.21842 | -75.52586 | 25958 ft | 499 kts | 117° |
| 2026-05-09 02:23 | 41.20428 | -75.48408 | 25437 ft | 492 kts | 117° |
| 2026-05-09 02:23 | 41.19035 | -75.44296 | 24881 ft | 485 kts | 117° |
| 2026-05-09 02:23 | 41.17678 | -75.40291 | 24302 ft | 480 kts | 117° |
| 2026-05-09 02:23 | 41.16299 | -75.36230 | 23728 ft | 474 kts | 117° |
| 2026-05-09 02:24 | 41.14973 | -75.32321 | 23295 ft | 465 kts | 117° |
| 2026-05-09 02:24 | 41.13665 | -75.28461 | 23100 ft | 458 kts | 117° |
| 2026-05-09 02:24 | 41.12352 | -75.24585 | 23026 ft | 463 kts | 117° |
| 2026-05-09 02:24 | 41.11029 | -75.20679 | 22997 ft | 466 kts | 117° |
| 2026-05-09 02:25 | 41.09693 | -75.16737 | 22987 ft | 470 kts | 117° |
| 2026-05-09 02:25 | 41.08334 | -75.12738 | 22980 ft | 473 kts | 117° |
| 2026-05-09 02:25 | 41.07000 | -75.08811 | 22972 ft | 476 kts | 117° |
| 2026-05-09 02:25 | 41.05620 | -75.04749 | 22966 ft | 478 kts | 117° |
| 2026-05-09 02:26 | 41.04248 | -75.00714 | 22963 ft | 481 kts | 117° |
| 2026-05-09 02:26 | 41.02890 | -74.96725 | 22967 ft | 481 kts | 117° |
| 2026-05-09 02:26 | 41.01481 | -74.92781 | 22934 ft | 466 kts | 118° |
| 2026-05-09 02:26 | 41.00202 | -74.88820 | 22554 ft | 468 kts | 111° |
| 2026-05-09 02:27 | 40.99290 | -74.84638 | 22300 ft | 466 kts | 103° |
| 2026-05-09 02:27 | 40.98665 | -74.80449 | 22128 ft | 463 kts | 99° |
| 2026-05-09 02:27 | 40.98179 | -74.76300 | 21916 ft | 460 kts | 98° |
| 2026-05-09 02:27 | 40.97730 | -74.72057 | 21684 ft | 459 kts | 97° |
| 2026-05-09 02:28 | 40.97305 | -74.67886 | 21452 ft | 457 kts | 97° |
| 2026-05-09 02:28 | 40.96865 | -74.63731 | 21227 ft | 455 kts | 98° |
| 2026-05-09 02:28 | 40.96402 | -74.59596 | 20997 ft | 453 kts | 98° |
| 2026-05-09 02:28 | 40.95926 | -74.55483 | 20773 ft | 451 kts | 98° |
| 2026-05-09 02:29 | 40.95452 | -74.51401 | 20584 ft | 447 kts | 98° |
| 2026-05-09 02:29 | 40.94969 | -74.47359 | 20429 ft | 443 kts | 99° |
| 2026-05-09 02:29 | 40.94465 | -74.43360 | 20256 ft | 439 kts | 99° |
| 2026-05-09 02:29 | 40.93978 | -74.39400 | 20104 ft | 435 kts | 99° |
| 2026-05-09 02:30 | 40.93514 | -74.35470 | 19947 ft | 431 kts | 98° |
| 2026-05-09 02:30 | 40.93054 | -74.31570 | 19792 ft | 427 kts | 98° |
| 2026-05-09 02:30 | 40.92598 | -74.27716 | 19640 ft | 423 kts | 99° |
| 2026-05-09 02:30 | 40.92123 | -74.23899 | 19491 ft | 419 kts | 99° |
| 2026-05-09 02:31 | 40.91649 | -74.20119 | 19340 ft | 415 kts | 99° |
| 2026-05-09 02:31 | 40.91184 | -74.16369 | 19184 ft | 411 kts | 99° |
| 2026-05-09 02:31 | 40.90400 | -74.12774 | 19023 ft | 405 kts | 119° |
| 2026-05-09 02:31 | 40.88804 | -74.09794 | 18886 ft | 391 kts | 141° |
| 2026-05-09 02:32 | 40.86650 | -74.07760 | 18693 ft | 372 kts | 161° |
| 2026-05-09 02:32 | 40.84343 | -74.06381 | 18494 ft | 357 kts | 164° |
| 2026-05-09 02:32 | 40.82093 | -74.05092 | 18285 ft | 347 kts | 165° |
| 2026-05-09 02:32 | 40.79865 | -74.03865 | 17764 ft | 347 kts | 166° |
| 2026-05-09 02:33 | 40.77642 | -74.02673 | 17387 ft | 343 kts | 166° |
| 2026-05-09 02:33 | 40.75432 | -74.01507 | 16983 ft | 341 kts | 166° |
| 2026-05-09 02:33 | 40.73233 | -74.00356 | 16602 ft | 339 kts | 166° |
| 2026-05-09 02:33 | 40.71058 | -73.99224 | 16331 ft | 333 kts | 166° |
| 2026-05-09 02:34 | 40.68924 | -73.98113 | 16177 ft | 325 kts | 166° |
| 2026-05-09 02:34 | 40.66822 | -73.97015 | 15620 ft | 331 kts | 166° |
| 2026-05-09 02:34 | 40.64658 | -73.95906 | 15159 ft | 332 kts | 166° |
| 2026-05-09 02:34 | 40.62511 | -73.94806 | 14814 ft | 331 kts | 166° |
| 2026-05-09 02:35 | 40.60371 | -73.93710 | 14461 ft | 329 kts | 166° |
| 2026-05-09 02:35 | 40.58243 | -73.92626 | 14134 ft | 327 kts | 166° |
| 2026-05-09 02:35 | 40.56126 | -73.91552 | 13819 ft | 325 kts | 166° |
| 2026-05-09 02:35 | 40.54020 | -73.90486 | 13453 ft | 323 kts | 166° |
| 2026-05-09 02:36 | 40.51931 | -73.89427 | 13100 ft | 320 kts | 166° |
| 2026-05-09 02:36 | 40.49860 | -73.88372 | 12730 ft | 318 kts | 166° |
| 2026-05-09 02:36 | 40.47811 | -73.87320 | 12361 ft | 315 kts | 166° |
| 2026-05-09 02:36 | 40.45780 | -73.86275 | 11993 ft | 313 kts | 166° |
| 2026-05-09 02:37 | 40.43765 | -73.85231 | 11637 ft | 310 kts | 166° |
| 2026-05-09 02:37 | 40.41766 | -73.84196 | 11271 ft | 308 kts | 166° |
| 2026-05-09 02:37 | 40.39769 | -73.83157 | 10816 ft | 310 kts | 166° |
| 2026-05-09 02:37 | 40.37773 | -73.82118 | 10494 ft | 307 kts | 166° |
| 2026-05-09 02:38 | 40.35800 | -73.81078 | 10182 ft | 305 kts | 166° |
| 2026-05-09 02:38 | 40.33838 | -73.80042 | 9851 ft | 303 kts | 166° |
| 2026-05-09 02:38 | 40.32012 | -73.78595 | 9466 ft | 316 kts | 141° |
| 2026-05-09 02:38 | 40.30735 | -73.76221 | 9145 ft | 322 kts | 122° |
| 2026-05-09 02:39 | 40.29701 | -73.73627 | 8834 ft | 320 kts | 121° |
| 2026-05-09 02:39 | 40.28683 | -73.71041 | 8536 ft | 318 kts | 120° |
| 2026-05-09 02:39 | 40.28008 | -73.68298 | 8207 ft | 320 kts | 95° |
| 2026-05-09 02:39 | 40.28255 | -73.65436 | 7902 ft | 314 kts | 68° |
| 2026-05-09 02:40 | 40.29329 | -73.63022 | 7518 ft | 302 kts | 41° |
| 2026-05-09 02:40 | 40.30904 | -73.61287 | 7132 ft | 294 kts | 31° |
| 2026-05-09 02:40 | 40.32535 | -73.59693 | 6756 ft | 291 kts | 31° |
| 2026-05-09 02:40 | 40.34177 | -73.58152 | 6363 ft | 289 kts | 30° |
| 2026-05-09 02:41 | 40.35825 | -73.56670 | 5997 ft | 286 kts | 29° |
| 2026-05-09 02:41 | 40.37466 | -73.55230 | 5641 ft | 282 kts | 28° |
| 2026-05-09 02:41 | 40.39106 | -73.53808 | 5230 ft | 283 kts | 28° |
| 2026-05-09 02:41 | 40.40740 | -73.52395 | 4892 ft | 279 kts | 28° |
| 2026-05-09 02:42 | 40.42359 | -73.51010 | 4559 ft | 276 kts | 28° |
| 2026-05-09 02:42 | 40.43983 | -73.49704 | 4201 ft | 271 kts | 20° |
| 2026-05-09 02:42 | 40.45772 | -73.49276 | 3810 ft | 259 kts | 349° |
| 2026-05-09 02:42 | 40.47411 | -73.50095 | 3428 ft | 251 kts | 325° |
| 2026-05-09 02:43 | 40.48852 | -73.51347 | 3195 ft | 245 kts | 324° |
| 2026-05-09 02:43 | 40.50249 | -73.52548 | 3077 ft | 235 kts | 325° |
| 2026-05-09 02:43 | 40.51616 | -73.53680 | 3044 ft | 232 kts | 325° |
| 2026-05-09 02:43 | 40.52939 | -73.54873 | 3100 ft | 230 kts | 322° |
| 2026-05-09 02:44 | 40.54203 | -73.56143 | 3181 ft | 227 kts | 316° |
| 2026-05-09 02:44 | 40.55353 | -73.57547 | 3223 ft | 226 kts | 315° |
| 2026-05-09 02:44 | 40.56482 | -73.58972 | 3074 ft | 223 kts | 310° |
| 2026-05-09 02:44 | 40.57422 | -73.60480 | 2839 ft | 199 kts | 304° |
| 2026-05-09 02:45 | 40.58141 | -73.61939 | 2466 ft | 183 kts | 298° |
| 2026-05-09 02:45 | 40.58729 | -73.63380 | 2255 ft | 170 kts | 296° |
| 2026-05-09 02:45 | 40.59258 | -73.64653 | 2121 ft | 154 kts | 297° |
| 2026-05-09 02:45 | 40.59793 | -73.65881 | 1896 ft | 153 kts | 298° |
| 2026-05-09 02:46 | 40.60325 | -73.67072 | 1681 ft | 151 kts | 300° |
| 2026-05-09 02:46 | 40.60888 | -73.68252 | 1434 ft | 152 kts | 300° |
| 2026-05-09 02:46 | 40.61430 | -73.69422 | 1225 ft | 144 kts | 298° |
| 2026-05-09 02:46 | 40.61925 | -73.70514 | 1030 ft | 136 kts | 298° |
| 2026-05-09 02:47 | 40.62398 | -73.71581 | 834 ft | 135 kts | 298° |
| 2026-05-09 02:47 | 40.62872 | -73.72649 | 635 ft | 134 kts | 300° |
| 2026-05-09 02:47 | 40.63349 | -73.73685 | 500 ft | 133 kts | 301° |
| 2026-05-09 02:47 | 40.63833 | -73.74740 | 328 ft | 137 kts | 300° |
| 2026-05-09 02:48 | 40.64325 | -73.75839 | 114 ft | 139 kts | 300° |
| 2026-05-09 02:48 | 40.64797 | -73.76869 | 24 ft | 120 kts | 300° |
| 2026-05-09 02:48 | 40.65176 | -73.77708 | 19 ft | 90 kts | 303° |
| 2026-05-09 02:48 | 40.65406 | -73.78207 | 21 ft | 32 kts | 301° |
| 2026-05-09 02:49 | 40.65417 | -73.78332 | 21 ft | 13 kts | 244° |
| 2026-05-09 02:49 | 40.65383 | -73.78409 | 21 ft | 0 kts | 239° |
| 2026-05-09 02:49 | 40.65379 | -73.78419 | 23 ft | 5 kts | 239° |
| 2026-05-09 02:49 | 40.65323 | -73.78449 | 20 ft | 7 kts | 177° |
| 2026-05-09 02:50 | 40.65296 | -73.78443 | 20 ft | 7 kts | 168° |
| 2026-05-09 02:50 | 40.65259 | -73.78476 | 22 ft | 6 kts | 238° |
| 2026-05-09 02:50 | 40.65248 | -73.78502 | 22 ft | 4 kts | 242° |
| 2026-05-09 02:50 | 40.65232 | -73.78543 | 22 ft | 9 kts | 244° |
| 2026-05-09 02:51 | 40.65201 | -73.78619 | 22 ft | 9 kts | 239° |
| 2026-05-09 02:51 | 40.65164 | -73.78700 | 20 ft | 11 kts | 242° |
| 2026-05-09 02:51 | 40.65142 | -73.78790 | 20 ft | 10 kts | 264° |
| 2026-05-09 02:51 | 40.65135 | -73.78883 | 22 ft | 8 kts | 265° |
| 2026-05-09 02:52 | 40.65102 | -73.78910 | 19 ft | 6 kts | 181° |
| 2026-05-09 02:52 | 40.65046 | -73.78922 | 18 ft | 9 kts | 209° |
| 2026-05-09 02:52 | 40.65013 | -73.78987 | 18 ft | 8 kts | 241° |
| 2026-05-09 02:52 | 40.64990 | -73.79041 | 18 ft | 6 kts | 241° |
| 2026-05-09 02:53 | 40.64973 | -73.79080 | 18 ft | 4 kts | 240° |
| 2026-05-09 02:53 | 40.64969 | -73.79107 | 17 ft | 2 kts | 281° |
| 2026-05-09 02:53 | 40.64981 | -73.79123 | 19 ft | 7 kts | 339° |
| 2026-05-09 02:53 | 40.65013 | -73.79135 | 18 ft | 2 kts | 347° |
| 2026-05-09 02:54 | 40.65028 | -73.79140 | 17 ft | 0 kts | 342° |